createdAt,value
2022-11-23T00:01:24.384Z,1.98
2022-11-23T00:03:53.774Z,2.03
2022-11-23T00:06:21.983Z,1.98
2022-11-23T00:08:49.866Z,1.95
2022-11-23T00:11:17.741Z,1.83
2022-11-23T00:13:45.033Z,1.88
2022-11-23T00:16:18.428Z,1.98
2022-11-23T00:18:47.311Z,2.05
2022-11-23T00:21:18.486Z,1.98
2022-11-23T00:23:46.176Z,2.15
2022-11-23T00:26:14.652Z,1.90
2022-11-23T00:28:42.459Z,1.90
2022-11-23T00:31:15.709Z,1.67
2022-11-23T00:33:43.912Z,1.60
2022-11-23T00:36:13.547Z,1.73
2022-11-23T00:38:42.319Z,1.50
2022-11-23T00:41:15.587Z,2.10
2022-11-23T00:43:43.596Z,1.90
2022-11-23T00:46:33.044Z,1.92
2022-11-23T00:49:00.716Z,1.98
2022-11-23T00:51:30.890Z,2.28
2022-11-23T00:53:59.429Z,2.20
2022-11-23T00:56:28.407Z,2.33
2022-11-23T00:58:57.568Z,3.90
2022-11-23T01:01:27.353Z,3.97
2022-11-23T01:03:56.513Z,2.90
2022-11-23T01:06:29.499Z,2.53
2022-11-23T01:08:59.618Z,2.30
2022-11-23T01:11:29.278Z,1.80
2022-11-23T01:13:56.691Z,1.80
2022-11-23T01:16:29.142Z,2.15
2022-11-23T01:18:58.317Z,2.80
2022-11-23T01:21:28.218Z,2.53
2022-11-23T01:23:56.087Z,2.22
2022-11-23T01:26:24.160Z,2.30
2022-11-23T01:28:51.674Z,2.50
2022-11-23T01:31:24.140Z,2.53
2022-11-23T01:33:55.792Z,2.50
2022-11-23T01:36:27.297Z,2.30
2022-11-23T01:38:55.220Z,2.35
2022-11-23T01:41:33.717Z,2.47
2022-11-23T01:44:01.362Z,3.22
2022-11-23T01:46:28.575Z,4.35
2022-11-23T01:49:03.874Z,3.70
2022-11-23T01:51:39.520Z,3.30
2022-11-23T01:54:22.796Z,3.20
2022-11-23T01:57:23.395Z,3.22
2022-11-23T01:59:51.360Z,3.75
2022-11-23T02:02:18.280Z,2.97
2022-11-23T02:04:48.733Z,2.65
2022-11-23T02:07:17.713Z,4.22
2022-11-23T02:09:47.270Z,4.35
2022-11-23T02:12:14.800Z,4.78
2022-11-23T02:14:44.343Z,4.82
2022-11-23T02:17:11.805Z,4.72
2022-11-23T02:19:44.137Z,4.22
2022-11-23T02:22:20.692Z,2.95
2022-11-23T02:24:53.416Z,4.03
2022-11-23T02:27:21.969Z,2.75
2022-11-23T02:29:52.733Z,2.83
2022-11-23T02:32:24.135Z,3.10
2022-11-23T02:34:55.637Z,2.78
2022-11-23T02:37:22.974Z,2.55
2022-11-23T02:39:54.389Z,2.67
2022-11-23T02:42:23.375Z,3.13
2022-11-23T02:45:05.556Z,2.75
2022-11-23T02:47:32.528Z,2.65
2022-11-23T02:50:01.241Z,2.78
2022-11-23T02:52:28.158Z,2.78
2022-11-23T02:54:56.951Z,3.30
2022-11-23T02:57:24.126Z,3.30
2022-11-23T02:59:50.993Z,3.22
2022-11-23T03:02:18.103Z,2.83
2022-11-23T03:04:44.877Z,4.15
2022-11-23T03:07:11.993Z,4.45
2022-11-23T03:09:39.358Z,3.22
2022-11-23T03:12:06.902Z,2.80
2022-11-23T03:14:34.878Z,2.97
2022-11-23T03:17:01.967Z,2.95
2022-11-23T03:19:34.760Z,3.17
2022-11-23T03:22:02.178Z,2.53
2022-11-23T03:24:31.627Z,2.65
2022-11-23T03:27:00.439Z,3.10
2022-11-23T03:29:27.542Z,3.13
2022-11-23T03:31:56.617Z,3.03
2022-11-23T03:34:24.678Z,3.42
2022-11-23T03:36:52.154Z,3.20
2022-11-23T03:39:21.070Z,3.90
2022-11-23T03:41:51.146Z,4.30
2022-11-23T03:44:20.556Z,4.05
2022-11-23T03:46:47.394Z,4.57
2022-11-23T03:49:14.162Z,4.57
2022-11-23T03:51:41.012Z,4.72
2022-11-23T03:54:08.651Z,5.07
2022-11-23T03:56:35.821Z,9.98
2022-11-23T03:59:02.913Z,17.05
2022-11-23T04:01:29.740Z,7.72
2022-11-23T04:04:01.746Z,5.45
2022-11-23T04:06:48.828Z,4.70
2022-11-23T04:09:19.940Z,5.22
2022-11-23T04:12:12.855Z,4.10
2022-11-23T04:14:40.722Z,4.85
2022-11-23T04:17:07.814Z,4.43
2022-11-23T04:19:35.200Z,3.95
2022-11-23T04:22:02.491Z,4.40
2022-11-23T04:24:34.703Z,5.03
2022-11-23T04:27:04.532Z,5.85
2022-11-23T04:29:31.720Z,6.10
2022-11-23T04:31:58.959Z,24.50
2022-11-23T04:34:25.832Z,12.43
2022-11-23T04:36:53.727Z,6.47
2022-11-23T04:39:27.290Z,7.63
2022-11-23T04:42:17.028Z,7.00
2022-11-23T04:44:49.457Z,6.78
2022-11-23T04:47:17.615Z,4.85
2022-11-23T04:49:46.503Z,3.80
2022-11-23T04:52:14.560Z,4.70
2022-11-23T04:54:46.095Z,4.97
2022-11-23T04:57:13.219Z,4.88
2022-11-23T04:59:40.590Z,5.07
2022-11-23T05:02:08.151Z,5.85
2022-11-23T05:04:45.744Z,4.78
2022-11-23T05:07:14.004Z,3.95
2022-11-23T05:09:44.491Z,3.53
2022-11-23T05:12:17.568Z,4.03
2022-11-23T05:14:44.784Z,6.90
2022-11-23T05:17:15.414Z,3.88
2022-11-23T05:19:43.217Z,3.08
2022-11-23T05:22:10.204Z,2.70
2022-11-23T05:24:40.328Z,3.00
2022-11-23T05:27:10.996Z,3.78
2022-11-23T05:29:39.276Z,3.08
2022-11-23T05:32:08.157Z,3.20
2022-11-23T05:34:35.318Z,3.63
2022-11-23T05:37:13.470Z,4.65
2022-11-23T05:39:49.994Z,4.50
2022-11-23T05:42:18.378Z,3.60
2022-11-23T05:44:49.454Z,3.70
2022-11-23T05:47:21.906Z,3.42
2022-11-23T05:49:50.697Z,3.58
2022-11-23T05:52:25.042Z,3.63
2022-11-23T05:54:52.225Z,8.70
2022-11-23T05:57:22.621Z,3.35
2022-11-23T05:59:51.404Z,4.78
2022-11-23T06:02:22.728Z,3.97
2022-11-23T06:07:28.685Z,4.72
2022-11-23T06:10:03.139Z,6.68
2022-11-23T06:12:35.104Z,7.18
2022-11-23T06:15:06.151Z,8.45
2022-11-23T06:17:34.372Z,8.20
2022-11-23T06:20:06.727Z,8.05
2022-11-23T06:22:39.442Z,10.93
2022-11-23T06:25:10.599Z,9.38
2022-11-23T06:27:41.570Z,10.57
2022-11-23T06:30:16.858Z,11.63
2022-11-23T06:32:44.248Z,15.75
2022-11-23T06:35:11.668Z,12.82
2022-11-23T06:37:41.468Z,13.30
2022-11-23T06:40:11.589Z,13.90
2022-11-23T06:42:43.540Z,11.30
2022-11-23T06:45:19.938Z,11.73
2022-11-23T06:47:50.885Z,10.90
2022-11-23T06:50:18.851Z,12.40
2022-11-23T06:52:47.561Z,12.45
2022-11-23T06:55:14.985Z,13.25
2022-11-23T06:57:42.310Z,14.85
2022-11-23T07:00:12.378Z,16.55
2022-11-23T07:02:39.455Z,19.05
2022-11-23T07:05:09.681Z,20.77
2022-11-23T07:10:11.993Z,21.60
2022-11-23T07:12:48.839Z,38.30
2022-11-23T07:15:20.044Z,32.90
2022-11-23T07:17:50.887Z,36.80
2022-11-23T07:20:20.678Z,36.88
2022-11-23T07:22:48.287Z,35.35
2022-11-23T07:25:19.509Z,36.20
2022-11-23T07:27:53.665Z,34.97
2022-11-23T07:30:23.040Z,34.97
2022-11-23T07:32:54.151Z,36.35
2022-11-23T07:35:23.119Z,36.42
2022-11-23T07:37:50.202Z,48.10
2022-11-23T07:40:17.555Z,46.90
2022-11-23T07:42:45.420Z,46.42
2022-11-23T07:45:13.598Z,43.38
2022-11-23T07:47:45.557Z,26.33
2022-11-23T07:50:16.242Z,16.15
2022-11-23T07:52:43.352Z,28.23
2022-11-23T07:55:10.988Z,25.45
2022-11-23T07:57:38.012Z,24.98
2022-11-23T08:00:06.184Z,23.88
2022-11-23T08:02:52.663Z,25.13
2022-11-23T08:05:27.550Z,30.55
2022-11-23T08:08:03.305Z,32.75
2022-11-23T08:10:31.929Z,37.88
2022-11-23T08:13:05.173Z,37.92
2022-11-23T08:15:32.340Z,34.22
2022-11-23T08:18:02.325Z,35.00
2022-11-23T08:20:30.430Z,38.28
2022-11-23T08:22:58.383Z,37.45
2022-11-23T08:25:27.645Z,43.67
2022-11-23T08:28:03.537Z,44.42
2022-11-23T08:30:32.177Z,42.65
2022-11-23T08:32:59.843Z,40.92
2022-11-23T08:35:27.126Z,37.63
2022-11-23T08:37:54.142Z,36.88
2022-11-23T08:40:25.387Z,37.88
2022-11-23T08:42:53.414Z,40.03
2022-11-23T08:45:20.686Z,39.88
2022-11-23T08:47:50.837Z,38.38
2022-11-23T08:50:18.875Z,42.45
2022-11-23T08:52:46.873Z,38.22
2022-11-23T08:55:14.555Z,40.53
2022-11-23T08:57:42.236Z,40.10
2022-11-23T09:00:10.283Z,44.53
2022-11-23T09:02:37.414Z,40.53
2022-11-23T09:05:08.763Z,42.20
2022-11-23T09:07:39.883Z,51.10
2022-11-23T09:10:13.657Z,60.60
2022-11-23T09:12:43.927Z,58.47
2022-11-23T09:15:11.223Z,42.30
2022-11-23T09:17:39.126Z,45.03
2022-11-23T09:20:10.394Z,36.88
2022-11-23T09:22:38.433Z,37.28
2022-11-23T09:25:07.463Z,40.08
2022-11-23T09:27:34.716Z,41.25
2022-11-23T09:30:02.687Z,34.78
2022-11-23T09:32:30.007Z,27.67
2022-11-23T09:34:57.218Z,26.30
2022-11-23T09:37:32.140Z,25.55
2022-11-23T09:40:01.978Z,26.52
2022-11-23T09:42:35.375Z,27.27
2022-11-23T09:45:05.530Z,29.77
2022-11-23T09:48:20.865Z,36.50
2022-11-23T09:51:01.778Z,32.55
2022-11-23T09:53:37.475Z,32.10
2022-11-23T09:56:06.431Z,37.83
2022-11-23T09:58:41.408Z,41.40
2022-11-23T10:01:14.553Z,25.10
2022-11-23T10:03:48.809Z,22.30
2022-11-23T10:06:36.349Z,24.80
2022-11-23T10:09:18.650Z,21.30
2022-11-23T10:12:06.017Z,20.02
2022-11-23T10:14:45.994Z,14.13
2022-11-23T10:17:25.128Z,12.98
2022-11-23T10:20:29.410Z,10.55
2022-11-23T10:23:08.245Z,9.85
2022-11-23T10:25:50.740Z,11.95
2022-11-23T10:28:21.618Z,10.25
2022-11-23T10:30:55.940Z,10.90
2022-11-23T10:33:48.312Z,12.60
2022-11-23T10:36:16.337Z,12.63
2022-11-23T10:38:44.999Z,13.00
2022-11-23T10:41:14.172Z,15.57
2022-11-23T10:44:04.247Z,14.15
2022-11-23T10:46:35.646Z,12.57
2022-11-23T10:49:31.112Z,12.68
2022-11-23T10:52:06.033Z,12.45
2022-11-23T10:54:38.929Z,11.77
2022-11-23T10:57:27.340Z,13.68
2022-11-23T11:00:10.252Z,12.05
2022-11-23T11:02:45.224Z,13.95
2022-11-23T11:06:08.112Z,14.25
2022-11-23T11:08:22.370Z,13.70
2022-11-23T11:11:10.975Z,10.57
2022-11-23T11:13:43.211Z,16.42
2022-11-23T11:16:31.131Z,12.65
2022-11-23T11:18:58.987Z,13.98
2022-11-23T11:21:41.383Z,16.05
2022-11-23T11:24:23.601Z,14.82
2022-11-23T11:27:01.658Z,13.13
2022-11-23T11:29:39.173Z,10.00
2022-11-23T11:32:21.568Z,9.70
2022-11-23T11:34:56.098Z,10.27
2022-11-23T11:37:30.477Z,13.05
2022-11-23T11:40:22.317Z,12.27
2022-11-23T11:45:29.665Z,8.23
2022-11-23T11:48:05.649Z,9.55
2022-11-23T11:50:55.654Z,15.00
2022-11-23T11:53:31.814Z,14.98
2022-11-23T11:56:13.193Z,8.82
2022-11-23T11:58:51.316Z,10.13
2022-11-23T12:01:38.546Z,15.80
2022-11-23T12:04:17.464Z,22.02
2022-11-23T12:07:09.120Z,27.77
2022-11-23T12:09:41.798Z,35.03
2022-11-23T12:12:22.798Z,26.50
2022-11-23T12:14:54.015Z,26.90
2022-11-23T12:17:46.910Z,26.30
2022-11-23T12:20:39.395Z,26.35
2022-11-23T12:23:30.437Z,28.65
2022-11-23T12:26:22.722Z,23.45
2022-11-23T12:29:21.198Z,18.85
2022-11-23T12:32:01.028Z,11.45
2022-11-23T12:34:39.891Z,13.50
2022-11-23T12:37:37.987Z,16.08
2022-11-23T12:40:33.372Z,14.25
2022-11-23T12:43:15.314Z,20.38
2022-11-23T12:46:18.510Z,16.80
2022-11-23T12:49:04.049Z,11.95
2022-11-23T12:51:52.667Z,13.43
2022-11-23T12:54:46.127Z,12.40
2022-11-23T12:57:13.794Z,16.02
2022-11-23T12:59:43.579Z,12.80
2022-11-23T13:02:29.307Z,18.38
2022-11-23T13:05:28.522Z,16.30
2022-11-23T13:08:10.929Z,18.90
2022-11-23T13:11:23.507Z,20.15
2022-11-23T13:14:15.837Z,20.75
2022-11-23T13:17:15.056Z,21.15
2022-11-23T13:19:48.263Z,23.25
2022-11-23T13:22:21.338Z,22.88
2022-11-23T13:25:14.544Z,23.02
2022-11-23T13:27:50.722Z,23.02
2022-11-23T13:30:52.356Z,24.00
2022-11-23T13:33:37.991Z,20.88
2022-11-23T13:36:15.280Z,26.63
2022-11-23T13:38:47.047Z,40.72
2022-11-23T13:41:33.593Z,37.95
2022-11-23T13:44:19.242Z,33.75
2022-11-23T13:47:19.332Z,59.38
2022-11-23T13:50:07.779Z,48.60
2022-11-23T13:52:36.930Z,49.17
2022-11-23T13:55:13.860Z,39.53
2022-11-23T13:57:47.036Z,41.25
2022-11-23T14:00:52.028Z,41.22
2022-11-23T14:03:51.290Z,38.75
2022-11-23T14:06:39.896Z,38.17
2022-11-23T14:09:25.312Z,43.72
2022-11-23T14:12:29.774Z,44.42
2022-11-23T14:15:17.760Z,44.25
2022-11-23T14:17:56.957Z,51.78
2022-11-23T14:20:52.622Z,49.80
2022-11-23T14:23:37.509Z,49.72
2022-11-23T14:26:23.355Z,48.40
2022-11-23T14:29:18.742Z,45.88
2022-11-23T14:32:16.345Z,46.13
2022-11-23T14:35:16.941Z,48.25
2022-11-23T14:38:15.146Z,49.85
2022-11-23T14:41:05.008Z,55.30
2022-11-23T14:43:39.018Z,53.05
2022-11-23T14:46:13.219Z,51.95
2022-11-23T14:48:43.518Z,52.70
2022-11-23T14:51:14.735Z,64.07
2022-11-23T14:53:47.429Z,62.72
2022-11-23T14:56:26.373Z,61.20
2022-11-23T14:58:57.773Z,55.45
2022-11-23T15:01:26.146Z,52.15
2022-11-23T15:04:09.258Z,64.47
2022-11-23T15:06:45.568Z,57.80
2022-11-23T15:09:21.833Z,47.58
2022-11-23T15:11:49.565Z,47.72
2022-11-23T15:14:43.689Z,44.38
2022-11-23T15:17:22.151Z,35.45
2022-11-23T15:19:57.610Z,48.60
2022-11-23T15:22:27.771Z,46.40
2022-11-23T15:24:55.998Z,49.13
2022-11-23T15:27:30.288Z,67.75
2022-11-23T15:30:00.427Z,82.85
2022-11-23T15:32:33.195Z,89.57
2022-11-23T15:35:06.922Z,103.90
2022-11-23T15:37:47.832Z,106.68
2022-11-23T15:40:16.380Z,107.75
2022-11-23T15:42:45.377Z,105.13
2022-11-23T15:45:35.838Z,91.05
2022-11-23T15:48:12.557Z,100.65
2022-11-23T15:50:55.430Z,134.48
2022-11-23T15:53:33.364Z,126.72
2022-11-23T15:56:05.987Z,133.68
2022-11-23T15:58:35.610Z,148.13
2022-11-23T16:01:13.822Z,147.23
2022-11-23T16:03:52.460Z,161.50
2022-11-23T16:06:24.954Z,160.90
2022-11-23T16:08:52.229Z,168.57
2022-11-23T16:11:35.521Z,190.68
2022-11-23T16:14:15.739Z,172.00
2022-11-23T16:16:46.362Z,177.70
2022-11-23T16:19:40.111Z,168.93
2022-11-23T16:22:24.977Z,164.75
2022-11-23T16:24:54.866Z,145.02
2022-11-23T16:27:25.934Z,136.43
2022-11-23T16:29:56.517Z,126.90
2022-11-23T16:32:29.447Z,137.73
2022-11-23T16:35:23.143Z,134.18
2022-11-23T16:37:50.029Z,110.20
2022-11-23T16:40:17.390Z,129.90
2022-11-23T16:42:47.230Z,150.05
2022-11-23T16:45:15.034Z,131.63
2022-11-23T16:47:57.271Z,98.88
2022-11-23T16:50:24.574Z,115.72
2022-11-23T16:52:52.101Z,129.93
2022-11-23T16:55:19.447Z,148.82
2022-11-23T16:57:49.616Z,141.73
2022-11-23T17:00:23.105Z,150.82
2022-11-23T17:02:50.836Z,157.25
2022-11-23T17:05:24.053Z,150.48
2022-11-23T17:07:51.660Z,154.43
2022-11-23T17:10:18.903Z,163.55
2022-11-23T17:12:55.227Z,150.30
2022-11-23T17:15:24.005Z,156.95
2022-11-23T17:17:51.582Z,148.85
2022-11-23T17:20:36.957Z,153.52
2022-11-23T17:23:03.997Z,144.90
2022-11-23T17:25:31.018Z,143.55
2022-11-23T17:28:00.549Z,137.57
2022-11-23T17:30:28.275Z,131.85
2022-11-23T17:32:56.036Z,131.77
2022-11-23T17:35:24.558Z,152.27
2022-11-23T17:37:51.790Z,152.07
2022-11-23T17:40:21.694Z,79.65
2022-11-23T17:42:48.729Z,44.85
2022-11-23T17:45:16.136Z,42.72
2022-11-23T17:47:44.903Z,45.45
2022-11-23T17:50:21.238Z,58.55
2022-11-23T17:52:54.128Z,52.80
2022-11-23T17:55:27.640Z,58.83
2022-11-23T17:57:54.811Z,55.63
2022-11-23T18:00:23.608Z,54.63
2022-11-23T18:02:52.198Z,55.97
2022-11-23T18:05:25.842Z,48.35
2022-11-23T18:07:54.067Z,47.35
2022-11-23T18:10:24.050Z,54.30
2022-11-23T18:13:01.063Z,62.08
2022-11-23T18:15:30.580Z,67.10
2022-11-23T18:18:03.054Z,63.53
2022-11-23T18:20:31.901Z,72.10
2022-11-23T18:22:59.249Z,87.55
2022-11-23T18:25:26.315Z,83.55
2022-11-23T18:27:54.539Z,78.78
2022-11-23T18:30:21.964Z,75.85
2022-11-23T18:32:49.173Z,74.57
2022-11-23T18:35:16.142Z,59.13
2022-11-23T18:37:44.353Z,59.47
2022-11-23T18:40:12.535Z,54.70
2022-11-23T18:42:59.224Z,70.38
2022-11-23T18:45:29.710Z,72.45
2022-11-23T18:48:02.883Z,61.75
2022-11-23T18:50:30.959Z,61.30
2022-11-23T18:52:59.694Z,58.70
2022-11-23T18:55:30.356Z,51.80
2022-11-23T18:57:59.913Z,53.30
2022-11-23T19:00:27.989Z,54.05
2022-11-23T19:02:59.959Z,35.45
2022-11-23T19:05:29.307Z,33.10
2022-11-23T19:08:04.258Z,31.00
2022-11-23T19:10:33.948Z,30.35
2022-11-23T19:13:05.392Z,34.90
2022-11-23T19:15:33.250Z,32.33
2022-11-23T19:18:03.321Z,30.55
2022-11-23T19:20:31.043Z,31.83
2022-11-23T19:22:58.933Z,41.70
2022-11-23T19:25:26.156Z,41.80
2022-11-23T19:27:54.219Z,49.08
2022-11-23T19:30:22.183Z,47.88
2022-11-23T19:32:49.159Z,52.50
2022-11-23T19:35:16.666Z,45.08
2022-11-23T19:37:43.658Z,47.53
2022-11-23T19:40:12.870Z,57.63
2022-11-23T19:42:39.896Z,66.43
2022-11-23T19:45:07.549Z,48.80
2022-11-23T19:47:34.884Z,55.33
2022-11-23T19:50:01.711Z,66.55
2022-11-23T19:52:55.625Z,50.85
2022-11-23T19:55:17.566Z,60.25
2022-11-23T19:57:44.590Z,70.45
2022-11-23T20:00:12.560Z,62.40
2022-11-23T20:02:39.665Z,35.70
2022-11-23T20:05:08.039Z,35.40
2022-11-23T20:07:35.043Z,33.38
2022-11-23T20:10:02.550Z,50.60
2022-11-23T20:12:30.581Z,31.98
2022-11-23T20:14:58.377Z,34.33
2022-11-23T20:17:25.493Z,35.22
2022-11-23T20:19:53.369Z,36.63
2022-11-23T20:22:21.107Z,39.83
2022-11-23T20:24:48.217Z,31.00
2022-11-23T20:27:15.334Z,25.23
2022-11-23T20:29:43.175Z,27.27
2022-11-23T20:32:12.258Z,31.88
2022-11-23T20:34:39.456Z,28.67
2022-11-23T20:37:06.778Z,27.67
2022-11-23T20:39:33.949Z,30.27
2022-11-23T20:42:04.664Z,31.33
2022-11-23T20:44:34.310Z,33.80
2022-11-23T20:47:19.378Z,27.55
2022-11-23T20:50:00.258Z,27.50
2022-11-23T20:52:37.292Z,29.23
2022-11-23T20:55:04.729Z,23.08
2022-11-23T20:57:35.049Z,24.25
2022-11-23T21:00:02.510Z,23.50
2022-11-23T21:02:29.744Z,24.17
2022-11-23T21:04:59.630Z,24.88
2022-11-23T21:07:26.849Z,28.13
2022-11-23T21:09:54.047Z,28.27
2022-11-23T21:12:39.614Z,41.60
2022-11-23T21:15:07.746Z,35.83
2022-11-23T21:17:35.634Z,33.72
2022-11-23T21:20:02.604Z,34.03
2022-11-23T21:22:34.543Z,43.35
2022-11-23T21:25:01.664Z,51.42
2022-11-23T21:27:28.756Z,56.30
2022-11-23T21:29:55.828Z,82.53
2022-11-23T21:32:22.679Z,51.92
2022-11-23T21:34:49.971Z,43.75
2022-11-23T21:37:16.851Z,24.38
2022-11-23T21:39:47.960Z,24.08
2022-11-23T21:42:22.240Z,33.13
2022-11-23T21:47:17.092Z,51.55
2022-11-23T21:49:44.011Z,38.60
2022-11-23T21:52:11.361Z,106.65
2022-11-23T21:54:47.267Z,122.00
2022-11-23T21:57:18.720Z,29.00
2022-11-23T21:59:49.055Z,19.95
2022-11-23T22:02:19.571Z,22.25
2022-11-23T22:04:50.829Z,21.92
2022-11-23T22:07:21.662Z,19.23
2022-11-23T22:09:50.215Z,16.10
2022-11-23T22:12:17.273Z,15.52
2022-11-23T22:14:44.352Z,14.52
2022-11-23T22:17:11.267Z,17.05
2022-11-23T22:19:38.255Z,15.60
2022-11-23T22:22:07.804Z,16.40
2022-11-23T22:24:35.073Z,16.55
2022-11-23T22:27:02.656Z,17.23
2022-11-23T22:29:29.781Z,15.93
2022-11-23T22:32:06.236Z,16.17
2022-11-23T22:34:35.637Z,16.17
2022-11-23T22:37:08.854Z,17.30
2022-11-23T22:39:38.246Z,16.25
2022-11-23T22:42:06.604Z,16.27
2022-11-23T22:44:34.100Z,16.08
2022-11-23T22:47:01.492Z,17.20
2022-11-23T22:49:28.323Z,22.40
2022-11-23T22:51:55.590Z,17.40
2022-11-23T22:54:23.325Z,13.45
2022-11-23T22:56:50.425Z,14.55
2022-11-23T22:59:17.495Z,14.00
2022-11-23T23:01:44.829Z,13.02
2022-11-23T23:04:11.753Z,13.82
2022-11-23T23:06:39.097Z,12.95
2022-11-23T23:09:07.804Z,14.68
2022-11-23T23:11:36.055Z,14.13
2022-11-23T23:14:03.684Z,13.98
2022-11-23T23:16:31.789Z,15.75
2022-11-23T23:18:59.719Z,14.60
2022-11-23T23:21:28.914Z,13.77
2022-11-23T23:24:01.295Z,14.05
2022-11-23T23:26:29.580Z,12.70
2022-11-23T23:28:59.161Z,14.98
2022-11-23T23:31:27.329Z,15.32
2022-11-23T23:33:54.351Z,14.13
2022-11-23T23:36:23.168Z,15.30
2022-11-23T23:41:31.976Z,14.38
2022-11-23T23:44:03.763Z,15.80
2022-11-23T23:46:30.979Z,13.43
2022-11-23T23:49:00.921Z,13.80
2022-11-23T23:51:28.160Z,13.82
2022-11-23T23:53:58.046Z,13.63
2022-11-23T23:56:28.090Z,15.20
2022-11-23T23:58:56.996Z,14.85
